createdAt,value
2023-12-30T00:02:00.313Z,93920.75
2023-12-30T00:04:28.940Z,93924.50
2023-12-30T00:06:57.663Z,93921.56
2023-12-30T00:09:26.255Z,93926.81
2023-12-30T00:11:56.023Z,93919.22
2023-12-30T00:14:25.228Z,93923.34
2023-12-30T00:16:53.907Z,93925.69
2023-12-30T00:19:22.651Z,93917.78
2023-12-30T00:21:51.423Z,93932.75
2023-12-30T00:24:20.071Z,93939.97
2023-12-30T00:26:48.758Z,93935.22
2023-12-30T00:29:17.519Z,93934.25
2023-12-30T00:31:46.240Z,93941.28
2023-12-30T00:34:15.012Z,93924.69
2023-12-30T00:36:46.886Z,93940.31
2023-12-30T00:39:15.575Z,93938.38
2023-12-30T00:41:44.183Z,93942.38
2023-12-30T00:44:13.328Z,93949.38
2023-12-30T00:46:43.351Z,93957.28
2023-12-30T00:49:13.963Z,93947.41
2023-12-30T00:51:43.073Z,93944.56
2023-12-30T00:54:11.710Z,93952.59
2023-12-30T00:56:40.608Z,93956.34
2023-12-30T00:59:09.181Z,93957.91
2023-12-30T01:01:37.832Z,93936.69
2023-12-30T01:04:06.842Z,93945.28
2023-12-30T01:06:38.525Z,93949.22
2023-12-30T01:09:07.351Z,93956.41
2023-12-30T01:11:36.668Z,93957.50
2023-12-30T01:14:05.426Z,93946.94
2023-12-30T01:16:37.107Z,93941.19
2023-12-30T01:19:06.033Z,93939.25
2023-12-30T01:21:34.667Z,93938.22
2023-12-30T01:24:03.388Z,93940.53
2023-12-30T01:26:32.041Z,93952.94
2023-12-30T01:29:00.703Z,93942.72
2023-12-30T01:31:29.370Z,93936.06
2023-12-30T01:33:58.151Z,93925.84
2023-12-30T01:36:26.812Z,93937.25
2023-12-30T01:38:55.476Z,93942.00
2023-12-30T01:41:24.120Z,93939.03
2023-12-30T01:43:52.758Z,93919.19
2023-12-30T01:46:21.398Z,93937.34
2023-12-30T01:48:50.351Z,93933.75
2023-12-30T01:51:24.961Z,93929.75
2023-12-30T01:53:58.073Z,93925.47
2023-12-30T01:56:28.313Z,93928.66
2023-12-30T01:58:58.426Z,93925.03
2023-12-30T02:01:30.053Z,93918.97
2023-12-30T02:03:59.021Z,93902.16
2023-12-30T02:06:27.669Z,93917.63
2023-12-30T02:08:56.532Z,93906.78
2023-12-30T02:11:25.320Z,93910.22
2023-12-30T02:13:53.963Z,93912.44
2023-12-30T02:16:22.633Z,93911.13
2023-12-30T02:18:51.432Z,93908.59
2023-12-30T02:21:19.968Z,93895.09
2023-12-30T02:23:57.365Z,93898.41
2023-12-30T02:26:26.842Z,93900.78
2023-12-30T02:28:55.411Z,93895.97
2023-12-30T02:31:24.198Z,93896.56
2023-12-30T02:33:52.938Z,93889.31
2023-12-30T02:36:21.581Z,93885.34
2023-12-30T02:38:50.738Z,93895.09
2023-12-30T02:41:19.322Z,93872.78
2023-12-30T02:44:08.537Z,93877.25
2023-12-30T02:46:37.186Z,93869.75
2023-12-30T02:49:07.571Z,93870.78
2023-12-30T02:51:36.534Z,93868.25
2023-12-30T02:54:05.306Z,93879.41
2023-12-30T02:56:33.965Z,93878.97
2023-12-30T02:59:04.342Z,93856.97
2023-12-30T03:01:34.853Z,93878.69
2023-12-30T03:04:03.947Z,93876.03
2023-12-30T03:06:32.634Z,93874.81
2023-12-30T03:09:01.625Z,93867.09
2023-12-30T03:11:30.437Z,93868.00
2023-12-30T03:13:59.142Z,93869.88
2023-12-30T03:16:27.970Z,93874.88
2023-12-30T03:18:57.915Z,93872.25
2023-12-30T03:21:27.542Z,93868.56
2023-12-30T03:23:56.241Z,93861.09
2023-12-30T03:26:25.395Z,93856.25
2023-12-30T03:28:54.023Z,93860.00
2023-12-30T03:31:27.239Z,93847.63
2023-12-30T03:33:56.794Z,93840.78
2023-12-30T03:36:25.475Z,93848.44
2023-12-30T03:38:55.469Z,93844.25
2023-12-30T03:41:24.402Z,93842.41
2023-12-30T03:43:53.275Z,93831.91
2023-12-30T03:46:22.027Z,93841.56
2023-12-30T03:48:50.831Z,93846.72
2023-12-30T03:51:19.621Z,93835.31
2023-12-30T03:53:48.276Z,93836.63
2023-12-30T03:56:16.917Z,93827.78
2023-12-30T03:58:45.481Z,93830.16
2023-12-30T04:01:14.184Z,93827.06
2023-12-30T04:03:43.200Z,93823.91
2023-12-30T04:06:18.925Z,93813.66
2023-12-30T04:08:47.579Z,93813.94
2023-12-30T04:11:16.240Z,93808.75
2023-12-30T04:13:44.878Z,93804.97
2023-12-30T04:16:13.722Z,93806.00
2023-12-30T04:18:42.518Z,93783.66
2023-12-30T04:21:10.566Z,93803.16
2023-12-30T04:23:39.268Z,93802.13
2023-12-30T04:26:07.897Z,93795.09
2023-12-30T04:28:37.089Z,93803.16
2023-12-30T04:31:05.977Z,93800.25
2023-12-30T04:33:34.728Z,93779.03
2023-12-30T04:36:03.438Z,93800.19
2023-12-30T04:38:32.140Z,93804.00
2023-12-30T04:41:00.739Z,93812.78
2023-12-30T04:43:29.437Z,93807.88
2023-12-30T04:45:58.108Z,93807.00
2023-12-30T04:48:26.577Z,93809.56
2023-12-30T04:50:55.981Z,93801.50
2023-12-30T04:53:24.602Z,93818.06
2023-12-30T04:55:53.200Z,93822.13
2023-12-30T04:58:21.910Z,93822.84
2023-12-30T05:00:50.757Z,93824.25
2023-12-30T05:03:19.806Z,93817.16
2023-12-30T05:05:48.691Z,93823.03
2023-12-30T05:08:17.345Z,93816.19
2023-12-30T05:10:46.446Z,93820.31
2023-12-30T05:13:15.200Z,93819.59
2023-12-30T05:15:43.931Z,93822.91
2023-12-30T05:18:14.355Z,93818.63
2023-12-30T05:20:43.644Z,93822.06
2023-12-30T05:23:12.334Z,93830.75
2023-12-30T05:25:40.991Z,93823.19
2023-12-30T05:28:09.736Z,93819.97
2023-12-30T05:30:38.741Z,93818.03
2023-12-30T05:33:08.733Z,93808.84
2023-12-30T05:35:40.813Z,93815.22
2023-12-30T05:38:09.473Z,93811.72
2023-12-30T05:40:38.107Z,93817.53
2023-12-30T05:43:06.923Z,93817.06
2023-12-30T05:45:35.589Z,93818.31
2023-12-30T05:48:05.028Z,93818.91
2023-12-30T05:50:33.970Z,93808.84
2023-12-30T05:53:03.129Z,93803.06
2023-12-30T05:55:31.922Z,93808.13
2023-12-30T05:58:00.796Z,93809.63
2023-12-30T06:00:29.428Z,93808.66
2023-12-30T06:02:58.028Z,93811.47
2023-12-30T06:05:26.141Z,93808.22
2023-12-30T06:07:54.883Z,93810.59
2023-12-30T06:10:25.233Z,93791.50
2023-12-30T06:12:53.905Z,93808.13
2023-12-30T06:15:24.545Z,93795.00
2023-12-30T06:17:53.465Z,93802.59
2023-12-30T06:20:23.658Z,93795.59
2023-12-30T06:22:52.487Z,93794.19
2023-12-30T06:25:21.129Z,93790.06
2023-12-30T06:27:49.878Z,93786.28
2023-12-30T06:30:19.004Z,93779.44
2023-12-30T06:32:47.737Z,93787.00
2023-12-30T06:35:16.420Z,93778.66
2023-12-30T06:37:45.023Z,93788.31
2023-12-30T06:40:13.938Z,93781.28
2023-12-30T06:42:42.574Z,93781.38
2023-12-30T06:45:11.507Z,93782.72
2023-12-30T06:47:40.247Z,93777.28
2023-12-30T06:50:09.259Z,93776.84
2023-12-30T06:52:37.857Z,93780.25
2023-12-30T06:55:18.529Z,93773.69
2023-12-30T06:57:52.024Z,93773.31
2023-12-30T07:00:21.176Z,93769.22
2023-12-30T07:02:49.869Z,93768.97
2023-12-30T07:05:18.541Z,93761.25
2023-12-30T07:07:47.221Z,93761.50
2023-12-30T07:10:15.819Z,93751.09
2023-12-30T07:12:44.428Z,93745.66
2023-12-30T07:15:13.212Z,93747.75
2023-12-30T07:17:42.073Z,93736.81
2023-12-30T07:20:10.932Z,93742.41
2023-12-30T07:22:39.645Z,93749.66
2023-12-30T07:25:08.656Z,93739.25
2023-12-30T07:27:37.527Z,93733.91
2023-12-30T07:30:07.202Z,93744.69
2023-12-30T07:32:35.988Z,93748.53
2023-12-30T07:35:06.037Z,93727.53
2023-12-30T07:37:36.089Z,93733.13
2023-12-30T07:40:05.414Z,93730.50
2023-12-30T07:42:34.159Z,93736.38
2023-12-30T07:45:02.765Z,93738.13
2023-12-30T07:47:31.676Z,93738.72
2023-12-30T07:50:00.544Z,93736.97
2023-12-30T07:52:29.298Z,93742.94
2023-12-30T07:54:58.015Z,93741.28
2023-12-30T07:57:26.681Z,93736.47
2023-12-30T07:59:55.660Z,93736.63
2023-12-30T08:02:24.466Z,93726.63
2023-12-30T08:04:53.499Z,93730.56
2023-12-30T08:07:22.154Z,93723.91
2023-12-30T08:09:50.814Z,93731.72
2023-12-30T08:12:19.469Z,93719.25
2023-12-30T08:14:48.663Z,93728.34
2023-12-30T08:17:17.352Z,93724.13
2023-12-30T08:19:46.040Z,93721.34
2023-12-30T08:22:14.760Z,93722.50
2023-12-30T08:24:43.359Z,93726.97
2023-12-30T08:27:12.307Z,93731.63
2023-12-30T08:29:41.414Z,93722.84
2023-12-30T08:32:10.110Z,93735.31
2023-12-30T08:34:38.968Z,93722.78
2023-12-30T08:37:11.119Z,93725.03
2023-12-30T08:39:40.514Z,93715.66
2023-12-30T08:42:09.398Z,93702.09
2023-12-30T08:44:46.075Z,93701.63
2023-12-30T08:47:15.103Z,93706.94
2023-12-30T08:49:44.913Z,93709.59
2023-12-30T08:52:14.164Z,93711.19
2023-12-30T08:54:42.937Z,93713.19
2023-12-30T08:57:11.537Z,93718.56
2023-12-30T08:59:40.958Z,93708.84
2023-12-30T09:02:09.556Z,93705.03
2023-12-30T09:04:38.180Z,93702.59
2023-12-30T09:07:06.897Z,93701.44
2023-12-30T09:09:35.566Z,93686.13
2023-12-30T09:12:04.300Z,93687.34
2023-12-30T09:14:33.010Z,93685.88
2023-12-30T09:17:01.964Z,93691.94
2023-12-30T09:19:30.698Z,93690.19
2023-12-30T09:21:59.609Z,93695.56
2023-12-30T09:24:28.275Z,93698.47
2023-12-30T09:26:56.915Z,93680.56
2023-12-30T09:29:25.629Z,93692.31
2023-12-30T09:31:54.425Z,93677.47
2023-12-30T09:34:33.506Z,93672.31
2023-12-30T09:37:07.469Z,93666.88
2023-12-30T09:39:36.251Z,93664.81
2023-12-30T09:42:05.034Z,93672.44
2023-12-30T09:44:34.672Z,93657.41
2023-12-30T09:47:05.291Z,93666.63
2023-12-30T09:49:36.777Z,93657.78
2023-12-30T09:52:09.049Z,93669.91
2023-12-30T09:54:45.923Z,93664.88
2023-12-30T09:57:18.444Z,93653.19
2023-12-30T09:59:50.494Z,93655.97
2023-12-30T10:02:19.248Z,93654.94
2023-12-30T10:04:47.952Z,93655.72
2023-12-30T10:07:16.772Z,93670.63
2023-12-30T10:09:47.034Z,93667.41
2023-12-30T10:12:15.217Z,93648.78
2023-12-30T10:14:43.980Z,93667.38
2023-12-30T10:17:12.795Z,93633.81
2023-12-30T10:19:41.461Z,93639.81
2023-12-30T10:22:10.234Z,93651.50
2023-12-30T10:24:39.721Z,93652.28
2023-12-30T10:27:07.928Z,93646.47
2023-12-30T10:29:46.724Z,93649.13
2023-12-30T10:32:23.787Z,93648.78
2023-12-30T10:34:53.073Z,93633.94
2023-12-30T10:37:25.699Z,93644.91
2023-12-30T10:39:57.513Z,93640.06
2023-12-30T10:42:26.334Z,93629.28
2023-12-30T10:44:54.965Z,93636.25
2023-12-30T10:47:26.504Z,93639.09
2023-12-30T10:50:01.083Z,93634.44
2023-12-30T10:52:31.026Z,93640.00
2023-12-30T10:55:09.964Z,93642.41
2023-12-30T10:57:40.060Z,93624.13
2023-12-30T11:00:12.890Z,93631.34
2023-12-30T11:02:42.042Z,93633.59
2023-12-30T11:05:22.135Z,93626.25
2023-12-30T11:07:51.536Z,93627.22
2023-12-30T11:10:22.801Z,93628.63
2023-12-30T11:12:55.574Z,93629.59
2023-12-30T11:15:34.116Z,93629.47
2023-12-30T11:18:04.128Z,93633.94
2023-12-30T11:20:35.073Z,93637.94
2023-12-30T11:23:06.245Z,93637.44
2023-12-30T11:25:50.235Z,93643.13
2023-12-30T11:28:22.365Z,93628.34
2023-12-30T11:31:02.837Z,93623.03
2023-12-30T11:33:31.653Z,93620.50
2023-12-30T11:36:02.407Z,93610.56
2023-12-30T11:38:34.044Z,93597.88
2023-12-30T11:41:05.216Z,93605.63
2023-12-30T11:43:33.931Z,93602.28
2023-12-30T11:46:02.653Z,93594.97
2023-12-30T11:48:32.359Z,93585.22
2023-12-30T11:51:01.191Z,93588.81
2023-12-30T11:53:30.388Z,93580.75
2023-12-30T11:55:59.085Z,93586.31
2023-12-30T11:58:27.807Z,93568.72
2023-12-30T12:00:56.744Z,93559.75
2023-12-30T12:03:25.441Z,93561.28
2023-12-30T12:05:54.095Z,93550.06
2023-12-30T12:08:22.764Z,93541.50
2023-12-30T12:10:51.502Z,93560.84
2023-12-30T12:13:27.262Z,93554.56
2023-12-30T12:15:58.104Z,93543.53
2023-12-30T12:18:27.556Z,93543.19
2023-12-30T12:20:56.433Z,93528.44
2023-12-30T12:23:26.902Z,93531.69
2023-12-30T12:25:55.621Z,93527.63
2023-12-30T12:28:25.882Z,93526.16
2023-12-30T12:30:54.635Z,93517.75
2023-12-30T12:33:23.319Z,93510.16
2023-12-30T12:35:52.058Z,93515.66
2023-12-30T12:38:20.955Z,93517.06
2023-12-30T12:40:49.701Z,93515.66
2023-12-30T12:43:18.525Z,93508.78
2023-12-30T12:45:47.210Z,93514.69
2023-12-30T12:48:17.658Z,93511.19
2023-12-30T12:50:46.318Z,93513.13
2023-12-30T12:53:15.187Z,93518.22
2023-12-30T12:55:43.792Z,93515.34
2023-12-30T12:58:12.417Z,93512.38
2023-12-30T13:00:41.120Z,93513.78
2023-12-30T13:03:10.418Z,93518.06
2023-12-30T13:05:39.543Z,93500.84
2023-12-30T13:08:10.730Z,93517.72
2023-12-30T13:10:48.486Z,93527.28
2023-12-30T13:13:17.559Z,93525.09
2023-12-30T13:15:47.673Z,93530.75
2023-12-30T13:18:21.444Z,93523.16
2023-12-30T13:20:50.421Z,93520.19
2023-12-30T13:23:19.270Z,93513.13
2023-12-30T13:25:49.847Z,93508.66
2023-12-30T13:28:19.203Z,93470.25
2023-12-30T13:30:48.487Z,93493.56
2023-12-30T13:33:23.065Z,93488.91
2023-12-30T13:35:52.845Z,93488.69
2023-12-30T13:38:26.512Z,93474.06
2023-12-30T13:41:02.522Z,93490.66
2023-12-30T13:43:31.358Z,93480.28
2023-12-30T13:46:19.914Z,93483.78
2023-12-30T13:48:51.376Z,93477.28
2023-12-30T13:51:22.441Z,93473.78
2023-12-30T13:53:51.084Z,93470.63
2023-12-30T13:56:23.081Z,93464.34
2023-12-30T13:58:52.843Z,93464.75
2023-12-30T14:01:24.850Z,93456.72
2023-12-30T14:03:58.354Z,93456.72
2023-12-30T14:06:34.784Z,93453.25
2023-12-30T14:09:23.602Z,93451.06
2023-12-30T14:11:58.074Z,93447.75
2023-12-30T14:14:26.733Z,93452.03
2023-12-30T14:16:55.402Z,93458.47
2023-12-30T14:19:24.280Z,93462.22
2023-12-30T14:21:54.304Z,93463.59
2023-12-30T14:24:22.977Z,93454.97
2023-12-30T14:26:51.671Z,93452.03
2023-12-30T14:29:21.239Z,93439.91
2023-12-30T14:31:50.108Z,93446.78
2023-12-30T14:34:18.900Z,93442.66
2023-12-30T14:36:47.056Z,93439.94
2023-12-30T14:39:18.313Z,93439.97
2023-12-30T14:41:46.996Z,93434.81
2023-12-30T14:44:15.630Z,93434.84
2023-12-30T14:46:44.379Z,93433.13
2023-12-30T14:49:13.270Z,93427.84
2023-12-30T14:51:41.947Z,93422.78
2023-12-30T14:54:10.632Z,93427.13
2023-12-30T14:56:39.833Z,93441.94
2023-12-30T14:59:08.504Z,93426.69
2023-12-30T15:01:37.230Z,93423.75
2023-12-30T15:04:06.947Z,93431.81
2023-12-30T15:06:37.563Z,93425.38
2023-12-30T15:09:09.329Z,93432.00
2023-12-30T15:11:37.984Z,93425.38
2023-12-30T15:14:07.745Z,93423.81
2023-12-30T15:16:36.666Z,93419.28
2023-12-30T15:19:05.423Z,93425.53
2023-12-30T15:21:36.955Z,93417.34
2023-12-30T15:24:05.934Z,93418.69
2023-12-30T15:26:34.566Z,93417.69
2023-12-30T15:29:03.322Z,93398.84
2023-12-30T15:31:32.198Z,93420.41
2023-12-30T15:34:01.052Z,93417.06
2023-12-30T15:36:29.916Z,93421.75
2023-12-30T15:38:59.068Z,93415.47
2023-12-30T15:41:27.685Z,93413.16
2023-12-30T15:43:56.565Z,93414.47
2023-12-30T15:46:25.298Z,93418.38
2023-12-30T15:48:54.060Z,93415.41
2023-12-30T15:51:23.052Z,93416.78
2023-12-30T15:53:51.756Z,93414.47
2023-12-30T15:56:20.319Z,93408.59
2023-12-30T15:58:49.049Z,93417.56
2023-12-30T16:01:17.756Z,93417.75
2023-12-30T16:03:46.507Z,93416.38
2023-12-30T16:06:15.694Z,93399.97
2023-12-30T16:08:44.885Z,93407.41
2023-12-30T16:11:13.854Z,93402.88
2023-12-30T16:13:42.583Z,93416.38
2023-12-30T16:16:11.685Z,93406.59
2023-12-30T16:18:40.375Z,93400.13
2023-12-30T16:21:09.157Z,93396.41
2023-12-30T16:23:38.128Z,93402.88
2023-12-30T16:26:07.671Z,93408.56
2023-12-30T16:28:36.626Z,93406.59
2023-12-30T16:31:08.491Z,93418.69
2023-12-30T16:33:42.856Z,93420.28
2023-12-30T16:36:11.549Z,93412.03
2023-12-30T16:38:40.274Z,93414.41
2023-12-30T16:41:08.938Z,93417.13
2023-12-30T16:43:38.998Z,93416.00
2023-12-30T16:46:07.747Z,93428.16
2023-12-30T16:48:36.595Z,93409.38
2023-12-30T16:51:05.907Z,93411.97
2023-12-30T16:53:34.540Z,93411.34
2023-12-30T16:56:03.221Z,93411.75
2023-12-30T16:58:33.168Z,93396.13
2023-12-30T17:01:05.899Z,93391.44
2023-12-30T17:03:35.047Z,93387.16
2023-12-30T17:06:03.659Z,93387.94
2023-12-30T17:08:32.372Z,93379.00
2023-12-30T17:11:01.108Z,93378.03
2023-12-30T17:13:35.305Z,93386.28
2023-12-30T17:16:09.270Z,93363.78
2023-12-30T17:18:38.032Z,93371.25
2023-12-30T17:21:06.700Z,93376.16
2023-12-30T17:23:35.395Z,93370.88
2023-12-30T17:26:04.079Z,93372.63
2023-12-30T17:28:32.690Z,93375.59
2023-12-30T17:31:01.551Z,93367.34
2023-12-30T17:33:30.270Z,93368.53
2023-12-30T17:35:58.919Z,93371.28
2023-12-30T17:38:27.573Z,93360.69
2023-12-30T17:40:56.307Z,93370.09
2023-12-30T17:43:25.481Z,93350.13
2023-12-30T17:45:54.201Z,93347.94
2023-12-30T17:48:22.236Z,93347.16
2023-12-30T17:50:50.896Z,93346.19
2023-12-30T17:53:19.510Z,93349.31
2023-12-30T17:55:48.114Z,93338.53
2023-12-30T17:58:16.854Z,93332.25
2023-12-30T18:00:45.451Z,93326.16
2023-12-30T18:03:14.186Z,93328.31
2023-12-30T18:05:42.971Z,93325.00
2023-12-30T18:08:11.688Z,93326.56
2023-12-30T18:10:40.632Z,93324.41
2023-12-30T18:13:10.019Z,93319.69
2023-12-30T18:15:38.823Z,93315.19
2023-12-30T18:18:07.710Z,93326.75
2023-12-30T18:20:36.401Z,93319.47
2023-12-30T18:23:05.392Z,93327.72
2023-12-30T18:25:35.817Z,93325.38
2023-12-30T18:28:04.903Z,93311.66
2023-12-30T18:30:33.576Z,93301.84
2023-12-30T18:33:02.510Z,93307.91
2023-12-30T18:35:31.295Z,93310.84
2023-12-30T18:38:00.625Z,93308.09
2023-12-30T18:40:30.624Z,93310.44
2023-12-30T18:43:00.589Z,93306.72
2023-12-30T18:45:30.081Z,93300.25
2023-12-30T18:47:58.756Z,93305.34
2023-12-30T18:50:27.473Z,93301.00
2023-12-30T18:52:56.187Z,93294.75
2023-12-30T18:55:24.904Z,93290.03
2023-12-30T18:57:53.542Z,93302.19
2023-12-30T19:00:26.364Z,93276.91
2023-12-30T19:02:55.122Z,93295.69
2023-12-30T19:05:24.341Z,93295.66
2023-12-30T19:07:53.297Z,93293.16
2023-12-30T19:10:22.128Z,93288.41
2023-12-30T19:12:52.349Z,93286.19
2023-12-30T19:15:22.488Z,93277.16
2023-12-30T19:17:51.376Z,93283.59
2023-12-30T19:20:20.287Z,93286.06
2023-12-30T19:22:52.852Z,93274.72
2023-12-30T19:25:21.632Z,93277.84
2023-12-30T19:27:50.120Z,93286.41
2023-12-30T19:30:18.796Z,93281.25
2023-12-30T19:32:47.528Z,93264.88
2023-12-30T19:35:16.686Z,93274.75
2023-12-30T19:37:45.558Z,93274.22
2023-12-30T19:40:14.567Z,93267.06
2023-12-30T19:42:43.223Z,93267.06
2023-12-30T19:45:13.225Z,93269.84
2023-12-30T19:47:42.725Z,93269.19
2023-12-30T19:50:12.444Z,93264.56
2023-12-30T19:52:41.156Z,93266.63
2023-12-30T19:55:10.482Z,93271.81
2023-12-30T19:57:39.929Z,93260.28
2023-12-30T20:00:11.297Z,93261.50
2023-12-30T20:02:40.595Z,93262.41
2023-12-30T20:05:12.063Z,93242.50
2023-12-30T20:07:41.338Z,93241.38
2023-12-30T20:10:16.670Z,93228.00
2023-12-30T20:12:45.268Z,93232.19
2023-12-30T20:15:14.041Z,93223.38
2023-12-30T20:17:42.690Z,93223.84
2023-12-30T20:20:12.927Z,93227.16
2023-12-30T20:22:43.135Z,93213.91
2023-12-30T20:25:11.940Z,93214.03
2023-12-30T20:27:42.887Z,93211.50
2023-12-30T20:30:12.014Z,93207.50
2023-12-30T20:32:40.694Z,93211.28
2023-12-30T20:35:09.712Z,93219.63
2023-12-30T20:37:38.439Z,93206.94
2023-12-30T20:40:12.741Z,93215.06
2023-12-30T20:42:41.456Z,93203.84
2023-12-30T20:45:10.330Z,93192.19
2023-12-30T20:47:39.031Z,93191.63
2023-12-30T20:50:08.588Z,93195.19
2023-12-30T20:52:39.142Z,93200.88
2023-12-30T20:55:08.766Z,93198.75
2023-12-30T20:57:37.558Z,93199.53
2023-12-30T21:00:06.610Z,93188.97
2023-12-30T21:02:35.283Z,93184.53
2023-12-30T21:05:03.867Z,93189.41
2023-12-30T21:07:32.537Z,93184.75
2023-12-30T21:10:01.131Z,93181.06
2023-12-30T21:12:30.144Z,93187.09
2023-12-30T21:14:59.036Z,93179.41
2023-12-30T21:17:27.685Z,93172.81
2023-12-30T21:19:56.822Z,93181.06
2023-12-30T21:22:26.852Z,93183.97
2023-12-30T21:24:56.827Z,93174.63
2023-12-30T21:27:25.451Z,93181.63
2023-12-30T21:29:54.108Z,93180.06
2023-12-30T21:32:22.837Z,93182.28
2023-12-30T21:34:50.812Z,93178.41
2023-12-30T21:37:19.560Z,93168.16
2023-12-30T21:39:48.823Z,93167.59
2023-12-30T21:42:17.426Z,93169.25
2023-12-30T21:44:47.725Z,93164.78
2023-12-30T21:47:16.402Z,93161.69
2023-12-30T21:49:45.014Z,93154.66
2023-12-30T21:52:14.177Z,93160.78
2023-12-30T21:54:47.999Z,93147.06
2023-12-30T21:57:17.038Z,93159.22
2023-12-30T21:59:45.705Z,93153.97
2023-12-30T22:02:14.361Z,93168.56
2023-12-30T22:04:43.078Z,93162.44
2023-12-30T22:07:11.095Z,93162.44
2023-12-30T22:09:39.837Z,93164.66
2023-12-30T22:12:08.511Z,93165.00
2023-12-30T22:14:37.429Z,93160.53
2023-12-30T22:17:08.477Z,93160.41
2023-12-30T22:19:38.825Z,93163.19
2023-12-30T22:22:07.586Z,93155.91
2023-12-30T22:24:36.234Z,93164.47
2023-12-30T22:27:05.062Z,93165.91
2023-12-30T22:29:33.646Z,93164.34
2023-12-30T22:32:03.589Z,93155.63
2023-12-30T22:34:32.329Z,93157.19
2023-12-30T22:37:01.084Z,93165.63
2023-12-30T22:39:29.724Z,93168.16
2023-12-30T22:41:58.596Z,93166.94
2023-12-30T22:44:27.281Z,93171.94
2023-12-30T22:46:55.367Z,93175.91
2023-12-30T22:49:24.799Z,93159.53
2023-12-30T22:51:53.631Z,93173.78
2023-12-30T22:54:21.651Z,93160.72
2023-12-30T22:56:50.376Z,93172.72
2023-12-30T22:59:18.707Z,93173.38
2023-12-30T23:01:47.683Z,93168.34
2023-12-30T23:04:16.324Z,93184.25
2023-12-30T23:06:45.717Z,93175.31
2023-12-30T23:09:14.443Z,93186.88
2023-12-30T23:11:43.184Z,93183.84
2023-12-30T23:14:12.010Z,93190.50
2023-12-30T23:16:40.935Z,93197.81
2023-12-30T23:19:09.652Z,93175.03
2023-12-30T23:21:39.095Z,93186.03
2023-12-30T23:24:08.686Z,93183.25
2023-12-30T23:26:37.318Z,93187.31
2023-12-30T23:29:05.984Z,93187.66
2023-12-30T23:31:34.606Z,93181.84
2023-12-30T23:34:03.807Z,93184.09
2023-12-30T23:36:32.432Z,93189.38
2023-12-30T23:39:01.074Z,93183.63
2023-12-30T23:41:29.006Z,93183.25
2023-12-30T23:43:57.777Z,93180.34
2023-12-30T23:46:26.430Z,93181.56
2023-12-30T23:48:55.060Z,93185.66
2023-12-30T23:51:23.703Z,93186.66
2023-12-30T23:53:52.337Z,93189.44
2023-12-30T23:56:20.978Z,93188.72
2023-12-30T23:58:49.971Z,93202.31
